sensor_id;sensor_type;location;lat;lon;timestamp;P1;durP1;ratioP1;P2;durP2;ratioP2
41693;SDS011;27377;50.666;9.150;2023-07-30T00:00:43;6.03;;;2.10;;
41693;SDS011;27377;50.666;9.150;2023-07-30T00:03:09;6.32;;;2.00;;
41693;SDS011;27377;50.666;9.150;2023-07-30T00:05:34;7.97;;;2.28;;
41693;SDS011;27377;50.666;9.150;2023-07-30T00:08:00;6.88;;;2.03;;
41693;SDS011;27377;50.666;9.150;2023-07-30T00:10:25;5.25;;;2.22;;
41693;SDS011;27377;50.666;9.150;2023-07-30T00:12:51;3.40;;;2.10;;
41693;SDS011;27377;50.666;9.150;2023-07-30T00:15:17;5.90;;;2.10;;
41693;SDS011;27377;50.666;9.150;2023-07-30T00:17:42;6.55;;;2.30;;
41693;SDS011;27377;50.666;9.150;2023-07-30T00:20:08;4.40;;;2.00;;
41693;SDS011;27377;50.666;9.150;2023-07-30T00:22:34;6.53;;;2.10;;
41693;SDS011;27377;50.666;9.150;2023-07-30T00:24:59;6.30;;;2.17;;
41693;SDS011;27377;50.666;9.150;2023-07-30T00:27:25;4.68;;;2.30;;
41693;SDS011;27377;50.666;9.150;2023-07-30T00:29:50;7.03;;;2.20;;
41693;SDS011;27377;50.666;9.150;2023-07-30T00:32:16;7.35;;;2.08;;
41693;SDS011;27377;50.666;9.150;2023-07-30T00:34:42;8.27;;;2.00;;
41693;SDS011;27377;50.666;9.150;2023-07-30T00:37:08;9.13;;;2.50;;
41693;SDS011;27377;50.666;9.150;2023-07-30T00:39:34;4.63;;;2.10;;
41693;SDS011;27377;50.666;9.150;2023-07-30T00:41:59;6.78;;;2.30;;
41693;SDS011;27377;50.666;9.150;2023-07-30T00:44:25;5.95;;;2.20;;
41693;SDS011;27377;50.666;9.150;2023-07-30T00:46:51;6.75;;;2.22;;
41693;SDS011;27377;50.666;9.150;2023-07-30T00:49:17;5.72;;;2.25;;
41693;SDS011;27377;50.666;9.150;2023-07-30T00:51:42;4.87;;;2.30;;
41693;SDS011;27377;50.666;9.150;2023-07-30T00:54:09;8.10;;;2.40;;
41693;SDS011;27377;50.666;9.150;2023-07-30T00:56:36;7.15;;;2.20;;
41693;SDS011;27377;50.666;9.150;2023-07-30T00:59:02;7.45;;;2.30;;
41693;SDS011;27377;50.666;9.150;2023-07-30T01:01:27;6.90;;;2.30;;
41693;SDS011;27377;50.666;9.150;2023-07-30T01:03:55;6.82;;;2.33;;
41693;SDS011;27377;50.666;9.150;2023-07-30T01:06:21;7.30;;;2.50;;
41693;SDS011;27377;50.666;9.150;2023-07-30T01:08:48;6.10;;;2.38;;
41693;SDS011;27377;50.666;9.150;2023-07-30T01:11:14;5.80;;;2.60;;
41693;SDS011;27377;50.666;9.150;2023-07-30T01:13:40;4.45;;;2.30;;
41693;SDS011;27377;50.666;9.150;2023-07-30T01:19:48;5.70;;;2.00;;
41693;SDS011;27377;50.666;9.150;2023-07-30T01:33:37;6.38;;;2.30;;
41693;SDS011;27377;50.666;9.150;2023-07-30T01:47:13;5.97;;;2.10;;
41693;SDS011;27377;50.666;9.150;2023-07-30T01:50:48;4.75;;;2.00;;
41693;SDS011;27377;50.666;9.150;2023-07-30T02:00:38;6.00;;;1.58;;
41693;SDS011;27377;50.666;9.150;2023-07-30T02:15:06;3.70;;;1.60;;
41693;SDS011;27377;50.666;9.150;2023-07-30T02:18:52;4.05;;;1.40;;
41693;SDS011;27377;50.666;9.150;2023-07-30T02:59:09;6.82;;;1.80;;
41693;SDS011;27377;50.666;9.150;2023-07-30T03:01:35;7.03;;;2.20;;
41693;SDS011;27377;50.666;9.150;2023-07-30T03:07:40;5.68;;;1.80;;
41693;SDS011;27377;50.666;9.150;2023-07-30T03:10:25;5.63;;;1.77;;
41693;SDS011;27377;50.666;9.150;2023-07-30T03:13:41;5.03;;;1.90;;
41693;SDS011;27377;50.666;9.150;2023-07-30T03:17:03;6.75;;;1.73;;
41693;SDS011;27377;50.666;9.150;2023-07-30T03:20:02;4.75;;;1.73;;
41693;SDS011;27377;50.666;9.150;2023-07-30T03:23:18;2.97;;;1.73;;
41693;SDS011;27377;50.666;9.150;2023-07-30T03:26:30;4.07;;;1.90;;
41693;SDS011;27377;50.666;9.150;2023-07-30T03:29:52;4.07;;;1.53;;
41693;SDS011;27377;50.666;9.150;2023-07-30T03:33:44;7.18;;;1.95;;
41693;SDS011;27377;50.666;9.150;2023-07-30T03:36:11;4.67;;;2.13;;
41693;SDS011;27377;50.666;9.150;2023-07-30T03:38:43;3.83;;;1.90;;
41693;SDS011;27377;50.666;9.150;2023-07-30T03:41:11;3.78;;;1.70;;
41693;SDS011;27377;50.666;9.150;2023-07-30T03:46:43;5.65;;;2.20;;
41693;SDS011;27377;50.666;9.150;2023-07-30T04:01:05;8.17;;;2.30;;
41693;SDS011;27377;50.666;9.150;2023-07-30T04:04:24;3.87;;;2.10;;
41693;SDS011;27377;50.666;9.150;2023-07-30T04:07:52;8.00;;;2.28;;
41693;SDS011;27377;50.666;9.150;2023-07-30T04:17:22;4.50;;;2.08;;
41693;SDS011;27377;50.666;9.150;2023-07-30T04:20:07;7.60;;;2.40;;
41693;SDS011;27377;50.666;9.150;2023-07-30T04:26:25;5.13;;;2.33;;
41693;SDS011;27377;50.666;9.150;2023-07-30T04:30:05;5.72;;;2.40;;
41693;SDS011;27377;50.666;9.150;2023-07-30T04:33:30;8.95;;;2.40;;
41693;SDS011;27377;50.666;9.150;2023-07-30T04:36:15;8.32;;;2.60;;
41693;SDS011;27377;50.666;9.150;2023-07-30T04:39:28;4.95;;;2.42;;
41693;SDS011;27377;50.666;9.150;2023-07-30T04:41:55;4.88;;;2.20;;
41693;SDS011;27377;50.666;9.150;2023-07-30T04:44:21;6.22;;;2.60;;
41693;SDS011;27377;50.666;9.150;2023-07-30T04:46:46;4.15;;;2.20;;
41693;SDS011;27377;50.666;9.150;2023-07-30T04:49:12;6.00;;;2.40;;
41693;SDS011;27377;50.666;9.150;2023-07-30T04:51:37;5.03;;;2.13;;
41693;SDS011;27377;50.666;9.150;2023-07-30T04:54:03;5.45;;;2.10;;
41693;SDS011;27377;50.666;9.150;2023-07-30T04:56:29;7.03;;;2.42;;
41693;SDS011;27377;50.666;9.150;2023-07-30T04:58:54;5.15;;;2.13;;
41693;SDS011;27377;50.666;9.150;2023-07-30T05:01:20;5.53;;;2.17;;
41693;SDS011;27377;50.666;9.150;2023-07-30T05:03:46;4.35;;;2.17;;
41693;SDS011;27377;50.666;9.150;2023-07-30T05:06:11;4.35;;;2.25;;
41693;SDS011;27377;50.666;9.150;2023-07-30T05:08:37;4.78;;;2.20;;
41693;SDS011;27377;50.666;9.150;2023-07-30T05:11:06;4.88;;;2.15;;
41693;SDS011;27377;50.666;9.150;2023-07-30T05:13:31;5.05;;;2.20;;
41693;SDS011;27377;50.666;9.150;2023-07-30T05:15:57;4.80;;;2.40;;
41693;SDS011;27377;50.666;9.150;2023-07-30T05:18:26;3.63;;;2.00;;
41693;SDS011;27377;50.666;9.150;2023-07-30T05:20:51;5.47;;;2.30;;
41693;SDS011;27377;50.666;9.150;2023-07-30T05:23:17;5.75;;;2.05;;
41693;SDS011;27377;50.666;9.150;2023-07-30T05:25:42;6.43;;;2.20;;
41693;SDS011;27377;50.666;9.150;2023-07-30T05:28:09;6.90;;;2.08;;
41693;SDS011;27377;50.666;9.150;2023-07-30T05:30:34;6.05;;;2.13;;
41693;SDS011;27377;50.666;9.150;2023-07-30T05:33:00;5.20;;;2.17;;
41693;SDS011;27377;50.666;9.150;2023-07-30T05:35:26;5.05;;;2.20;;
41693;SDS011;27377;50.666;9.150;2023-07-30T05:37:51;5.10;;;2.20;;
41693;SDS011;27377;50.666;9.150;2023-07-30T05:40:17;5.07;;;2.17;;
41693;SDS011;27377;50.666;9.150;2023-07-30T05:42:42;3.97;;;2.10;;
41693;SDS011;27377;50.666;9.150;2023-07-30T05:45:08;5.23;;;2.10;;
41693;SDS011;27377;50.666;9.150;2023-07-30T05:47:34;4.28;;;2.20;;
41693;SDS011;27377;50.666;9.150;2023-07-30T05:50:00;7.40;;;2.25;;
41693;SDS011;27377;50.666;9.150;2023-07-30T05:52:38;5.15;;;2.08;;
41693;SDS011;27377;50.666;9.150;2023-07-30T05:55:13;5.32;;;2.20;;
41693;SDS011;27377;50.666;9.150;2023-07-30T05:57:39;5.15;;;2.00;;
41693;SDS011;27377;50.666;9.150;2023-07-30T06:00:05;4.67;;;2.30;;
41693;SDS011;27377;50.666;9.150;2023-07-30T06:02:34;7.28;;;2.22;;
41693;SDS011;27377;50.666;9.150;2023-07-30T06:05:00;5.22;;;2.00;;
41693;SDS011;27377;50.666;9.150;2023-07-30T06:07:25;4.28;;;2.00;;
41693;SDS011;27377;50.666;9.150;2023-07-30T06:09:51;4.97;;;1.90;;
41693;SDS011;27377;50.666;9.150;2023-07-30T06:12:16;6.43;;;2.00;;
41693;SDS011;27377;50.666;9.150;2023-07-30T06:14:42;7.47;;;2.13;;
41693;SDS011;27377;50.666;9.150;2023-07-30T06:17:07;5.07;;;2.00;;
41693;SDS011;27377;50.666;9.150;2023-07-30T06:19:33;5.17;;;1.80;;
41693;SDS011;27377;50.666;9.150;2023-07-30T06:21:59;4.18;;;2.10;;
41693;SDS011;27377;50.666;9.150;2023-07-30T06:24:24;4.73;;;1.90;;
41693;SDS011;27377;50.666;9.150;2023-07-30T06:26:50;6.73;;;2.10;;
41693;SDS011;27377;50.666;9.150;2023-07-30T06:29:16;5.33;;;1.90;;
41693;SDS011;27377;50.666;9.150;2023-07-30T06:31:44;5.60;;;1.90;;
41693;SDS011;27377;50.666;9.150;2023-07-30T06:34:10;6.35;;;1.92;;
41693;SDS011;27377;50.666;9.150;2023-07-30T06:36:36;6.28;;;2.17;;
41693;SDS011;27377;50.666;9.150;2023-07-30T06:39:01;3.83;;;1.80;;
41693;SDS011;27377;50.666;9.150;2023-07-30T06:41:27;3.72;;;1.95;;
41693;SDS011;27377;50.666;9.150;2023-07-30T06:43:53;3.20;;;1.80;;
41693;SDS011;27377;50.666;9.150;2023-07-30T06:46:19;4.47;;;1.77;;
41693;SDS011;27377;50.666;9.150;2023-07-30T06:48:44;4.50;;;1.70;;
41693;SDS011;27377;50.666;9.150;2023-07-30T06:51:10;5.10;;;1.92;;
41693;SDS011;27377;50.666;9.150;2023-07-30T06:53:37;3.22;;;1.63;;
41693;SDS011;27377;50.666;9.150;2023-07-30T06:56:03;4.03;;;1.70;;
41693;SDS011;27377;50.666;9.150;2023-07-30T06:58:30;3.92;;;1.75;;
41693;SDS011;27377;50.666;9.150;2023-07-30T07:00:56;3.80;;;1.70;;
41693;SDS011;27377;50.666;9.150;2023-07-30T07:03:21;5.80;;;1.70;;
41693;SDS011;27377;50.666;9.150;2023-07-30T07:05:56;3.90;;;1.70;;
41693;SDS011;27377;50.666;9.150;2023-07-30T07:08:22;3.30;;;1.70;;
41693;SDS011;27377;50.666;9.150;2023-07-30T07:10:48;6.57;;;1.83;;
41693;SDS011;27377;50.666;9.150;2023-07-30T07:13:14;3.88;;;1.90;;
41693;SDS011;27377;50.666;9.150;2023-07-30T07:15:40;4.93;;;1.80;;
41693;SDS011;27377;50.666;9.150;2023-07-30T07:18:06;3.55;;;1.83;;
41693;SDS011;27377;50.666;9.150;2023-07-30T07:20:32;3.47;;;1.73;;
41693;SDS011;27377;50.666;9.150;2023-07-30T07:22:58;4.73;;;1.57;;
41693;SDS011;27377;50.666;9.150;2023-07-30T07:25:26;4.15;;;1.63;;
41693;SDS011;27377;50.666;9.150;2023-07-30T07:27:53;4.05;;;1.70;;
41693;SDS011;27377;50.666;9.150;2023-07-30T07:30:18;3.73;;;1.60;;
41693;SDS011;27377;50.666;9.150;2023-07-30T07:32:44;5.67;;;1.60;;
41693;SDS011;27377;50.666;9.150;2023-07-30T07:35:09;4.90;;;1.77;;
41693;SDS011;27377;50.666;9.150;2023-07-30T07:37:35;3.42;;;1.50;;
41693;SDS011;27377;50.666;9.150;2023-07-30T07:40:01;3.60;;;1.83;;
41693;SDS011;27377;50.666;9.150;2023-07-30T07:42:29;4.57;;;1.92;;
41693;SDS011;27377;50.666;9.150;2023-07-30T07:44:55;4.70;;;1.92;;
41693;SDS011;27377;50.666;9.150;2023-07-30T07:47:21;3.70;;;1.80;;
41693;SDS011;27377;50.666;9.150;2023-07-30T07:49:50;7.00;;;2.13;;
41693;SDS011;27377;50.666;9.150;2023-07-30T07:52:15;6.25;;;2.20;;
41693;SDS011;27377;50.666;9.150;2023-07-30T07:54:41;5.38;;;1.98;;
41693;SDS011;27377;50.666;9.150;2023-07-30T07:57:07;4.95;;;1.98;;
41693;SDS011;27377;50.666;9.150;2023-07-30T07:59:32;6.25;;;2.20;;
41693;SDS011;27377;50.666;9.150;2023-07-30T08:01:58;5.72;;;1.98;;
41693;SDS011;27377;50.666;9.150;2023-07-30T08:04:27;4.68;;;1.80;;
41693;SDS011;27377;50.666;9.150;2023-07-30T08:06:53;5.03;;;1.83;;
41693;SDS011;27377;50.666;9.150;2023-07-30T08:09:19;5.40;;;2.10;;
41693;SDS011;27377;50.666;9.150;2023-07-30T08:11:44;5.03;;;2.20;;
41693;SDS011;27377;50.666;9.150;2023-07-30T08:14:10;5.73;;;2.50;;
41693;SDS011;27377;50.666;9.150;2023-07-30T08:16:35;4.40;;;2.23;;
41693;SDS011;27377;50.666;9.150;2023-07-30T08:19:01;5.63;;;1.87;;
41693;SDS011;27377;50.666;9.150;2023-07-30T08:21:26;4.57;;;1.90;;
41693;SDS011;27377;50.666;9.150;2023-07-30T08:23:52;6.10;;;1.90;;
41693;SDS011;27377;50.666;9.150;2023-07-30T08:26:18;4.45;;;1.70;;
41693;SDS011;27377;50.666;9.150;2023-07-30T08:28:44;5.70;;;1.88;;
41693;SDS011;27377;50.666;9.150;2023-07-30T08:31:09;4.88;;;1.80;;
41693;SDS011;27377;50.666;9.150;2023-07-30T08:33:41;5.57;;;2.05;;
41693;SDS011;27377;50.666;9.150;2023-07-30T08:36:07;8.63;;;2.10;;
41693;SDS011;27377;50.666;9.150;2023-07-30T08:38:32;7.32;;;1.88;;
41693;SDS011;27377;50.666;9.150;2023-07-30T08:40:58;5.32;;;1.80;;
41693;SDS011;27377;50.666;9.150;2023-07-30T08:43:24;4.95;;;1.95;;
41693;SDS011;27377;50.666;9.150;2023-07-30T08:45:50;4.70;;;2.10;;
41693;SDS011;27377;50.666;9.150;2023-07-30T08:48:15;5.57;;;1.90;;
41693;SDS011;27377;50.666;9.150;2023-07-30T08:50:42;6.05;;;1.90;;
41693;SDS011;27377;50.666;9.150;2023-07-30T08:53:12;4.80;;;1.75;;
41693;SDS011;27377;50.666;9.150;2023-07-30T08:55:44;5.90;;;1.80;;
41693;SDS011;27377;50.666;9.150;2023-07-30T08:58:11;6.07;;;2.00;;
41693;SDS011;27377;50.666;9.150;2023-07-30T09:00:38;4.63;;;1.80;;
41693;SDS011;27377;50.666;9.150;2023-07-30T09:03:07;5.22;;;1.90;;
41693;SDS011;27377;50.666;9.150;2023-07-30T09:05:36;5.85;;;1.70;;
41693;SDS011;27377;50.666;9.150;2023-07-30T09:08:03;5.35;;;1.80;;
41693;SDS011;27377;50.666;9.150;2023-07-30T09:10:29;4.35;;;1.80;;
41693;SDS011;27377;50.666;9.150;2023-07-30T09:12:56;3.60;;;1.60;;
41693;SDS011;27377;50.666;9.150;2023-07-30T09:15:32;5.20;;;1.93;;
41693;SDS011;27377;50.666;9.150;2023-07-30T09:18:02;4.88;;;1.98;;
41693;SDS011;27377;50.666;9.150;2023-07-30T09:20:39;5.40;;;2.05;;
41693;SDS011;27377;50.666;9.150;2023-07-30T09:23:06;5.60;;;2.10;;
41693;SDS011;27377;50.666;9.150;2023-07-30T09:25:36;5.65;;;1.92;;
41693;SDS011;27377;50.666;9.150;2023-07-30T09:28:03;5.43;;;1.90;;
41693;SDS011;27377;50.666;9.150;2023-07-30T09:30:30;4.50;;;1.90;;
41693;SDS011;27377;50.666;9.150;2023-07-30T09:32:58;3.60;;;1.95;;
41693;SDS011;27377;50.666;9.150;2023-07-30T09:35:24;4.43;;;1.83;;
41693;SDS011;27377;50.666;9.150;2023-07-30T09:37:57;4.13;;;1.83;;
41693;SDS011;27377;50.666;9.150;2023-07-30T09:40:37;3.33;;;1.75;;
41693;SDS011;27377;50.666;9.150;2023-07-30T09:43:04;4.30;;;2.03;;
41693;SDS011;27377;50.666;9.150;2023-07-30T09:45:32;4.15;;;1.85;;
41693;SDS011;27377;50.666;9.150;2023-07-30T09:48:04;3.95;;;1.80;;
41693;SDS011;27377;50.666;9.150;2023-07-30T09:50:30;3.87;;;1.90;;
41693;SDS011;27377;50.666;9.150;2023-07-30T09:53:01;4.38;;;2.20;;
41693;SDS011;27377;50.666;9.150;2023-07-30T09:55:28;5.63;;;1.95;;
41693;SDS011;27377;50.666;9.150;2023-07-30T09:57:54;4.55;;;1.60;;
41693;SDS011;27377;50.666;9.150;2023-07-30T10:00:23;4.07;;;1.70;;
41693;SDS011;27377;50.666;9.150;2023-07-30T10:02:49;3.75;;;1.58;;
41693;SDS011;27377;50.666;9.150;2023-07-30T10:05:19;5.50;;;2.05;;
41693;SDS011;27377;50.666;9.150;2023-07-30T10:07:55;5.45;;;1.75;;
41693;SDS011;27377;50.666;9.150;2023-07-30T10:10:45;4.68;;;1.80;;
41693;SDS011;27377;50.666;9.150;2023-07-30T10:13:11;6.07;;;1.60;;
41693;SDS011;27377;50.666;9.150;2023-07-30T10:15:38;4.88;;;1.75;;
41693;SDS011;27377;50.666;9.150;2023-07-30T10:18:04;4.45;;;1.73;;
41693;SDS011;27377;50.666;9.150;2023-07-30T10:20:30;7.07;;;2.08;;
41693;SDS011;27377;50.666;9.150;2023-07-30T10:23:00;5.32;;;2.08;;
41693;SDS011;27377;50.666;9.150;2023-07-30T10:25:30;4.70;;;1.80;;
41693;SDS011;27377;50.666;9.150;2023-07-30T10:28:08;5.43;;;1.83;;
41693;SDS011;27377;50.666;9.150;2023-07-30T10:30:34;4.82;;;1.50;;
41693;SDS011;27377;50.666;9.150;2023-07-30T10:33:01;5.00;;;1.40;;
41693;SDS011;27377;50.666;9.150;2023-07-30T10:38:17;5.65;;;1.70;;
41693;SDS011;27377;50.666;9.150;2023-07-30T10:41:07;4.00;;;1.40;;
41693;SDS011;27377;50.666;9.150;2023-07-30T10:43:40;6.25;;;1.40;;
41693;SDS011;27377;50.666;9.150;2023-07-30T10:46:11;3.58;;;1.15;;
41693;SDS011;27377;50.666;9.150;2023-07-30T10:48:42;3.05;;;1.27;;
41693;SDS011;27377;50.666;9.150;2023-07-30T10:51:12;2.63;;;1.10;;
41693;SDS011;27377;50.666;9.150;2023-07-30T10:53:43;4.57;;;1.30;;
41693;SDS011;27377;50.666;9.150;2023-07-30T10:56:10;2.50;;;1.00;;
41693;SDS011;27377;50.666;9.150;2023-07-30T10:58:37;2.73;;;1.10;;
41693;SDS011;27377;50.666;9.150;2023-07-30T11:01:07;4.63;;;1.10;;
41693;SDS011;27377;50.666;9.150;2023-07-30T11:03:33;2.60;;;1.00;;
41693;SDS011;27377;50.666;9.150;2023-07-30T11:06:01;3.33;;;1.13;;
41693;SDS011;27377;50.666;9.150;2023-07-30T11:08:37;3.00;;;1.05;;
41693;SDS011;27377;50.666;9.150;2023-07-30T11:11:14;2.45;;;1.10;;
41693;SDS011;27377;50.666;9.150;2023-07-30T11:13:41;2.37;;;1.00;;
41693;SDS011;27377;50.666;9.150;2023-07-30T11:16:12;2.08;;;0.90;;
41693;SDS011;27377;50.666;9.150;2023-07-30T11:18:42;2.60;;;1.00;;
41693;SDS011;27377;50.666;9.150;2023-07-30T11:21:12;2.58;;;1.00;;
41693;SDS011;27377;50.666;9.150;2023-07-30T11:23:45;2.05;;;0.90;;
41693;SDS011;27377;50.666;9.150;2023-07-30T11:26:16;2.67;;;0.98;;
41693;SDS011;27377;50.666;9.150;2023-07-30T11:28:47;2.63;;;1.00;;
41693;SDS011;27377;50.666;9.150;2023-07-30T11:31:17;2.00;;;0.90;;
41693;SDS011;27377;50.666;9.150;2023-07-30T11:33:47;3.05;;;1.10;;
41693;SDS011;27377;50.666;9.150;2023-07-30T11:36:23;2.65;;;1.10;;
41693;SDS011;27377;50.666;9.150;2023-07-30T11:38:53;4.43;;;1.33;;
41693;SDS011;27377;50.666;9.150;2023-07-30T11:41:21;3.38;;;1.30;;
41693;SDS011;27377;50.666;9.150;2023-07-30T11:43:49;3.97;;;1.20;;
41693;SDS011;27377;50.666;9.150;2023-07-30T11:46:17;3.70;;;1.10;;
41693;SDS011;27377;50.666;9.150;2023-07-30T11:48:46;5.45;;;1.50;;
41693;SDS011;27377;50.666;9.150;2023-07-30T11:51:24;4.45;;;1.27;;
41693;SDS011;27377;50.666;9.150;2023-07-30T11:53:56;3.78;;;1.30;;
41693;SDS011;27377;50.666;9.150;2023-07-30T11:56:24;3.33;;;1.27;;
41693;SDS011;27377;50.666;9.150;2023-07-30T11:58:53;3.97;;;1.30;;
41693;SDS011;27377;50.666;9.150;2023-07-30T12:01:24;4.30;;;1.33;;
41693;SDS011;27377;50.666;9.150;2023-07-30T12:03:55;2.72;;;1.30;;
41693;SDS011;27377;50.666;9.150;2023-07-30T12:09:17;4.38;;;1.40;;
41693;SDS011;27377;50.666;9.150;2023-07-30T12:14:22;4.80;;;1.50;;
41693;SDS011;27377;50.666;9.150;2023-07-30T12:17:18;6.68;;;1.70;;
41693;SDS011;27377;50.666;9.150;2023-07-30T12:19:51;3.30;;;1.40;;
41693;SDS011;27377;50.666;9.150;2023-07-30T12:22:33;5.17;;;1.50;;
41693;SDS011;27377;50.666;9.150;2023-07-30T12:25:00;4.57;;;1.57;;
41693;SDS011;27377;50.666;9.150;2023-07-30T12:27:39;5.38;;;1.55;;
41693;SDS011;27377;50.666;9.150;2023-07-30T12:30:08;4.15;;;1.50;;
41693;SDS011;27377;50.666;9.150;2023-07-30T12:32:39;4.75;;;1.77;;
41693;SDS011;27377;50.666;9.150;2023-07-30T12:35:06;5.95;;;1.60;;
41693;SDS011;27377;50.666;9.150;2023-07-30T12:37:32;5.70;;;1.65;;
41693;SDS011;27377;50.666;9.150;2023-07-30T12:43:08;6.00;;;1.88;;
41693;SDS011;27377;50.666;9.150;2023-07-30T12:45:38;6.65;;;1.58;;
41693;SDS011;27377;50.666;9.150;2023-07-30T12:48:07;5.70;;;1.50;;
41693;SDS011;27377;50.666;9.150;2023-07-30T12:50:33;4.30;;;1.60;;
41693;SDS011;27377;50.666;9.150;2023-07-30T12:53:00;5.90;;;1.70;;
41693;SDS011;27377;50.666;9.150;2023-07-30T12:55:41;7.75;;;1.70;;
41693;SDS011;27377;50.666;9.150;2023-07-30T12:58:07;7.03;;;1.80;;
41693;SDS011;27377;50.666;9.150;2023-07-30T13:00:33;6.40;;;1.70;;
41693;SDS011;27377;50.666;9.150;2023-07-30T13:03:02;7.90;;;1.80;;
41693;SDS011;27377;50.666;9.150;2023-07-30T13:05:32;6.67;;;1.77;;
41693;SDS011;27377;50.666;9.150;2023-07-30T13:07:58;6.50;;;1.80;;
41693;SDS011;27377;50.666;9.150;2023-07-30T13:13:21;6.43;;;1.60;;
41693;SDS011;27377;50.666;9.150;2023-07-30T13:15:48;6.67;;;1.90;;
41693;SDS011;27377;50.666;9.150;2023-07-30T13:18:27;7.07;;;1.77;;
41693;SDS011;27377;50.666;9.150;2023-07-30T13:21:06;6.40;;;1.90;;
41693;SDS011;27377;50.666;9.150;2023-07-30T13:23:35;5.50;;;1.67;;
41693;SDS011;27377;50.666;9.150;2023-07-30T13:26:00;6.43;;;1.50;;
41693;SDS011;27377;50.666;9.150;2023-07-30T13:28:32;8.07;;;1.60;;
41693;SDS011;27377;50.666;9.150;2023-07-30T13:31:07;6.32;;;1.70;;
41693;SDS011;27377;50.666;9.150;2023-07-30T13:33:33;7.47;;;1.70;;
41693;SDS011;27377;50.666;9.150;2023-07-30T13:35:59;6.20;;;1.80;;
41693;SDS011;27377;50.666;9.150;2023-07-30T13:38:25;5.50;;;1.45;;
41693;SDS011;27377;50.666;9.150;2023-07-30T13:40:52;6.43;;;1.65;;
41693;SDS011;27377;50.666;9.150;2023-07-30T13:43:23;8.80;;;1.67;;
41693;SDS011;27377;50.666;9.150;2023-07-30T13:45:49;7.00;;;1.70;;
41693;SDS011;27377;50.666;9.150;2023-07-30T13:48:15;6.53;;;1.77;;
41693;SDS011;27377;50.666;9.150;2023-07-30T13:50:41;5.30;;;1.58;;
41693;SDS011;27377;50.666;9.150;2023-07-30T13:53:07;8.37;;;1.80;;
41693;SDS011;27377;50.666;9.150;2023-07-30T13:55:33;7.77;;;2.10;;
41693;SDS011;27377;50.666;9.150;2023-07-30T13:57:58;5.10;;;1.60;;
41693;SDS011;27377;50.666;9.150;2023-07-30T14:00:24;7.38;;;1.77;;
41693;SDS011;27377;50.666;9.150;2023-07-30T14:02:49;6.80;;;1.70;;
41693;SDS011;27377;50.666;9.150;2023-07-30T14:05:19;8.60;;;2.10;;
41693;SDS011;27377;50.666;9.150;2023-07-30T14:07:45;6.07;;;2.13;;
41693;SDS011;27377;50.666;9.150;2023-07-30T14:10:15;6.72;;;1.50;;
41693;SDS011;27377;50.666;9.150;2023-07-30T14:12:44;9.25;;;2.20;;
41693;SDS011;27377;50.666;9.150;2023-07-30T14:15:14;9.13;;;1.85;;
41693;SDS011;27377;50.666;9.150;2023-07-30T14:17:43;6.47;;;1.75;;
41693;SDS011;27377;50.666;9.150;2023-07-30T14:20:11;6.78;;;2.00;;
41693;SDS011;27377;50.666;9.150;2023-07-30T14:22:41;5.80;;;1.80;;
41693;SDS011;27377;50.666;9.150;2023-07-30T14:25:13;5.38;;;1.63;;
41693;SDS011;27377;50.666;9.150;2023-07-30T14:27:39;6.70;;;2.00;;
41693;SDS011;27377;50.666;9.150;2023-07-30T14:30:04;6.03;;;1.83;;
41693;SDS011;27377;50.666;9.150;2023-07-30T14:32:31;5.80;;;1.70;;
41693;SDS011;27377;50.666;9.150;2023-07-30T14:34:56;7.00;;;1.63;;
41693;SDS011;27377;50.666;9.150;2023-07-30T14:37:22;6.97;;;1.87;;
41693;SDS011;27377;50.666;9.150;2023-07-30T14:39:47;6.30;;;1.77;;
41693;SDS011;27377;50.666;9.150;2023-07-30T14:42:13;6.13;;;1.80;;
41693;SDS011;27377;50.666;9.150;2023-07-30T14:44:39;7.20;;;1.80;;
41693;SDS011;27377;50.666;9.150;2023-07-30T14:47:04;7.40;;;1.88;;
41693;SDS011;27377;50.666;9.150;2023-07-30T14:49:32;5.93;;;1.67;;
41693;SDS011;27377;50.666;9.150;2023-07-30T14:51:58;6.17;;;1.60;;
41693;SDS011;27377;50.666;9.150;2023-07-30T14:54:23;7.85;;;1.70;;
41693;SDS011;27377;50.666;9.150;2023-07-30T14:56:49;7.63;;;1.80;;
41693;SDS011;27377;50.666;9.150;2023-07-30T14:59:14;5.80;;;1.63;;
41693;SDS011;27377;50.666;9.150;2023-07-30T15:01:40;5.50;;;1.63;;
41693;SDS011;27377;50.666;9.150;2023-07-30T15:04:06;7.63;;;1.98;;
41693;SDS011;27377;50.666;9.150;2023-07-30T15:06:31;5.18;;;1.50;;
41693;SDS011;27377;50.666;9.150;2023-07-30T15:08:57;4.15;;;1.42;;
41693;SDS011;27377;50.666;9.150;2023-07-30T15:11:23;5.68;;;1.63;;
41693;SDS011;27377;50.666;9.150;2023-07-30T15:13:49;5.77;;;1.70;;
41693;SDS011;27377;50.666;9.150;2023-07-30T15:16:15;6.43;;;1.77;;
41693;SDS011;27377;50.666;9.150;2023-07-30T15:18:43;7.67;;;1.40;;
41693;SDS011;27377;50.666;9.150;2023-07-30T15:21:09;5.80;;;1.38;;
41693;SDS011;27377;50.666;9.150;2023-07-30T15:23:36;8.43;;;1.50;;
41693;SDS011;27377;50.666;9.150;2023-07-30T15:26:01;6.20;;;1.67;;
41693;SDS011;27377;50.666;9.150;2023-07-30T15:28:27;5.90;;;1.40;;
41693;SDS011;27377;50.666;9.150;2023-07-30T15:30:52;5.60;;;1.70;;
41693;SDS011;27377;50.666;9.150;2023-07-30T15:33:18;5.68;;;1.60;;
41693;SDS011;27377;50.666;9.150;2023-07-30T15:35:44;8.15;;;1.67;;
41693;SDS011;27377;50.666;9.150;2023-07-30T15:38:09;5.35;;;1.38;;
41693;SDS011;27377;50.666;9.150;2023-07-30T15:40:36;5.28;;;1.52;;
41693;SDS011;27377;50.666;9.150;2023-07-30T15:43:02;5.15;;;1.48;;
41693;SDS011;27377;50.666;9.150;2023-07-30T15:45:28;8.20;;;1.73;;
41693;SDS011;27377;50.666;9.150;2023-07-30T15:47:54;6.65;;;1.48;;
41693;SDS011;27377;50.666;9.150;2023-07-30T15:50:20;6.37;;;1.77;;
41693;SDS011;27377;50.666;9.150;2023-07-30T15:52:51;4.63;;;1.35;;
41693;SDS011;27377;50.666;9.150;2023-07-30T15:55:17;7.68;;;1.70;;
41693;SDS011;27377;50.666;9.150;2023-07-30T15:57:43;6.70;;;1.60;;
41693;SDS011;27377;50.666;9.150;2023-07-30T16:00:09;5.95;;;1.40;;
41693;SDS011;27377;50.666;9.150;2023-07-30T16:02:35;4.40;;;1.40;;
41693;SDS011;27377;50.666;9.150;2023-07-30T16:05:01;5.60;;;1.58;;
41693;SDS011;27377;50.666;9.150;2023-07-30T16:07:26;4.88;;;1.40;;
41693;SDS011;27377;50.666;9.150;2023-07-30T16:09:52;6.63;;;1.42;;
41693;SDS011;27377;50.666;9.150;2023-07-30T16:12:17;6.30;;;1.70;;
41693;SDS011;27377;50.666;9.150;2023-07-30T16:14:43;5.77;;;1.47;;
41693;SDS011;27377;50.666;9.150;2023-07-30T16:17:09;4.93;;;1.30;;
41693;SDS011;27377;50.666;9.150;2023-07-30T16:19:35;4.68;;;1.38;;
41693;SDS011;27377;50.666;9.150;2023-07-30T16:22:01;5.72;;;1.30;;
41693;SDS011;27377;50.666;9.150;2023-07-30T16:24:26;4.07;;;1.23;;
41693;SDS011;27377;50.666;9.150;2023-07-30T16:26:52;5.73;;;1.50;;
41693;SDS011;27377;50.666;9.150;2023-07-30T16:29:18;5.70;;;1.60;;
41693;SDS011;27377;50.666;9.150;2023-07-30T16:31:43;5.07;;;1.40;;
41693;SDS011;27377;50.666;9.150;2023-07-30T16:34:09;5.22;;;1.30;;
41693;SDS011;27377;50.666;9.150;2023-07-30T16:36:34;4.63;;;1.17;;
41693;SDS011;27377;50.666;9.150;2023-07-30T16:39:00;5.72;;;1.35;;
41693;SDS011;27377;50.666;9.150;2023-07-30T16:41:25;5.93;;;1.40;;
41693;SDS011;27377;50.666;9.150;2023-07-30T16:43:51;5.60;;;1.43;;
41693;SDS011;27377;50.666;9.150;2023-07-30T16:46:17;4.53;;;1.20;;
41693;SDS011;27377;50.666;9.150;2023-07-30T16:48:42;4.93;;;1.33;;
41693;SDS011;27377;50.666;9.150;2023-07-30T16:51:08;3.60;;;1.40;;
41693;SDS011;27377;50.666;9.150;2023-07-30T16:53:33;5.75;;;1.40;;
41693;SDS011;27377;50.666;9.150;2023-07-30T16:55:59;4.68;;;1.20;;
41693;SDS011;27377;50.666;9.150;2023-07-30T16:58:24;5.20;;;1.48;;
41693;SDS011;27377;50.666;9.150;2023-07-30T17:00:58;6.30;;;1.42;;
41693;SDS011;27377;50.666;9.150;2023-07-30T17:03:25;5.63;;;1.52;;
41693;SDS011;27377;50.666;9.150;2023-07-30T17:05:57;5.20;;;1.50;;
41693;SDS011;27377;50.666;9.150;2023-07-30T17:08:23;4.30;;;1.20;;
41693;SDS011;27377;50.666;9.150;2023-07-30T17:10:49;6.20;;;1.40;;